createdAt,value
2019-04-22T00:02:13.862Z,9.80
2019-04-22T00:04:54.711Z,7.50
2019-04-22T00:07:36.174Z,7.57
2019-04-22T00:10:12.724Z,7.53
2019-04-22T00:12:42.375Z,8.27
2019-04-22T00:15:10.213Z,7.50
2019-04-22T00:17:46.500Z,8.07
2019-04-22T00:20:14.380Z,6.83
2019-04-22T00:22:56.693Z,8.30
2019-04-22T00:25:19.728Z,7.67
2019-04-22T00:27:50.474Z,8.10
2019-04-22T00:30:16.561Z,5.83
2019-04-22T00:32:55.525Z,6.83
2019-04-22T00:35:23.907Z,7.93
2019-04-22T00:38:05.687Z,8.73
2019-04-22T00:40:33.991Z,10.03
2019-04-22T00:43:01.195Z,8.50
2019-04-22T00:45:37.205Z,9.63
2019-04-22T00:48:14.453Z,8.97
2019-04-22T00:50:39.703Z,10.07
2019-04-22T00:53:09.016Z,10.00
2019-04-22T00:55:38.072Z,11.47
2019-04-22T00:58:08.260Z,10.27
2019-04-22T01:00:37.937Z,8.07
2019-04-22T01:03:11.504Z,7.93
2019-04-22T01:05:43.868Z,7.60
2019-04-22T01:08:17.776Z,8.17
2019-04-22T01:10:46.831Z,7.73
2019-04-22T01:13:16.306Z,8.87
2019-04-22T01:15:43.265Z,9.37
2019-04-22T01:18:13.127Z,11.70
2019-04-22T01:21:00.841Z,10.10
2019-04-22T01:23:11.271Z,7.20
2019-04-22T01:25:41.716Z,8.07
2019-04-22T01:28:06.425Z,7.07
2019-04-22T01:30:32.205Z,9.40
2019-04-22T01:33:03.545Z,9.83
2019-04-22T01:35:37.737Z,7.20
2019-04-22T01:38:08.943Z,9.90
2019-04-22T01:40:53.939Z,7.13
2019-04-22T01:43:28.199Z,8.57
2019-04-22T01:45:54.405Z,11.43
2019-04-22T01:48:30.304Z,10.93
2019-04-22T01:50:49.975Z,8.70
2019-04-22T01:53:27.557Z,11.13
2019-04-22T01:56:02.016Z,8.73
2019-04-22T01:58:19.750Z,8.67
2019-04-22T02:01:00.138Z,11.10
2019-04-22T02:03:25.985Z,9.67
2019-04-22T02:06:02.427Z,10.00
2019-04-22T02:08:38.089Z,8.40
2019-04-22T02:11:01.078Z,9.43
2019-04-22T02:13:32.175Z,10.90
2019-04-22T02:15:58.800Z,12.83
2019-04-22T02:18:38.207Z,13.37
2019-04-22T02:21:03.126Z,9.67
2019-04-22T02:36:19.240Z,8.93
2019-04-22T02:44:01.324Z,9.47
2019-04-22T02:46:34.986Z,9.37
2019-04-22T03:06:32.928Z,8.53
2019-04-22T03:09:01.316Z,7.80
2019-04-22T03:11:28.891Z,8.43
2019-04-22T03:21:24.165Z,8.63
2019-04-22T03:26:35.189Z,9.03
2019-04-22T03:28:54.964Z,7.60
2019-04-22T03:32:17.322Z,10.23
2019-04-22T03:37:09.470Z,10.93
2019-04-22T03:39:46.207Z,11.03
2019-04-22T03:47:01.870Z,9.03
2019-04-22T03:52:10.771Z,6.83
2019-04-22T04:02:16.176Z,8.23
2019-04-22T04:04:36.814Z,8.83
2019-04-22T04:07:20.490Z,11.00
2019-04-22T04:12:22.054Z,8.57
2019-04-22T04:14:44.570Z,7.83
2019-04-22T04:24:44.548Z,6.80
2019-04-22T04:29:45.709Z,7.37
2019-04-22T04:32:25.201Z,8.43
2019-04-22T04:34:54.054Z,8.93
2019-04-22T04:37:25.494Z,9.43
2019-04-22T04:39:45.345Z,8.10
2019-04-22T04:45:11.782Z,8.27
2019-04-22T04:47:11.822Z,8.10
2019-04-22T04:49:46.031Z,9.57
2019-04-22T04:52:19.382Z,9.33
2019-04-22T04:57:16.568Z,10.10
2019-04-22T05:00:11.273Z,8.37
2019-04-22T05:02:20.229Z,9.63
2019-04-22T05:07:19.614Z,10.73
2019-04-22T05:09:46.267Z,10.90
2019-04-22T05:14:50.463Z,9.13
2019-04-22T05:17:18.834Z,10.33
2019-04-22T05:19:37.682Z,11.67
2019-04-22T05:22:15.260Z,9.77
2019-04-22T05:24:44.307Z,11.13
2019-04-22T05:27:21.993Z,8.90
2019-04-22T05:30:00.897Z,9.47
2019-04-22T05:32:22.913Z,11.50
2019-04-22T05:34:51.380Z,10.40
2019-04-22T05:37:20.758Z,9.83
2019-04-22T05:39:52.607Z,8.60
2019-04-22T05:44:49.707Z,10.20
2019-04-22T05:47:22.509Z,9.83
2019-04-22T05:49:48.282Z,8.40
2019-04-22T05:52:22.401Z,10.77
2019-04-22T05:54:50.150Z,11.03
2019-04-22T05:57:24.738Z,9.90
2019-04-22T05:59:56.918Z,10.57
2019-04-22T06:02:36.190Z,8.60
2019-04-22T06:05:01.683Z,8.83
2019-04-22T06:07:22.622Z,11.50
2019-04-22T06:09:59.643Z,8.37
2019-04-22T06:12:24.511Z,8.33
2019-04-22T06:14:58.149Z,10.57
2019-04-22T06:17:31.335Z,10.60
2019-04-22T06:20:07.576Z,9.77
2019-04-22T06:22:37.171Z,10.17
2019-04-22T06:27:39.012Z,9.57
2019-04-22T06:30:12.642Z,9.90
2019-04-22T06:32:58.630Z,10.53
2019-04-22T06:35:21.627Z,8.60
2019-04-22T06:37:46.413Z,9.03
2019-04-22T06:40:13.269Z,9.80
2019-04-22T06:42:45.543Z,10.67
2019-04-22T06:45:15.165Z,11.90
2019-04-22T06:47:51.314Z,10.87
2019-04-22T06:50:16.603Z,10.23
2019-04-22T06:52:48.286Z,14.47
2019-04-22T06:55:16.495Z,13.03
2019-04-22T06:57:44.823Z,12.53
2019-04-22T07:00:17.470Z,13.60
2019-04-22T07:03:12.585Z,11.93
2019-04-22T07:05:17.929Z,17.23
2019-04-22T07:07:52.129Z,14.30
2019-04-22T07:10:30.147Z,12.30
2019-04-22T07:12:52.036Z,17.20
2019-04-22T07:15:40.090Z,14.77
2019-04-22T07:17:55.211Z,17.13
2019-04-22T07:20:23.797Z,15.00
2019-04-22T07:22:51.479Z,17.83
2019-04-22T07:25:23.434Z,15.37
2019-04-22T07:27:52.378Z,14.57
2019-04-22T07:30:23.525Z,14.50
2019-04-22T07:35:28.606Z,18.13
2019-04-22T07:37:59.171Z,15.30
2019-04-22T07:40:27.087Z,15.77
2019-04-22T07:42:57.484Z,17.00
2019-04-22T07:45:29.304Z,15.83
2019-04-22T07:48:07.214Z,15.00
2019-04-22T07:50:44.457Z,14.40
2019-04-22T07:53:02.932Z,16.20
2019-04-22T07:55:29.505Z,14.43
2019-04-22T07:58:02.344Z,14.23
2019-04-22T08:00:34.183Z,13.67
2019-04-22T08:03:06.733Z,15.13
2019-04-22T08:05:47.610Z,16.30
2019-04-22T08:08:17.473Z,16.47
2019-04-22T08:10:43.327Z,14.80
2019-04-22T08:13:03.793Z,16.60
2019-04-22T08:15:43.265Z,14.50
2019-04-22T08:20:41.107Z,15.23
2019-04-22T08:23:16.340Z,17.23
2019-04-22T08:25:42.847Z,16.20
2019-04-22T08:28:17.412Z,13.80
2019-04-22T08:30:51.974Z,13.13
2019-04-22T08:33:22.111Z,15.03
2019-04-22T08:36:08.645Z,18.23
2019-04-22T08:38:25.588Z,15.87
2019-04-22T08:41:16.346Z,14.57
2019-04-22T08:43:55.822Z,13.97
2019-04-22T08:46:25.609Z,15.33
2019-04-22T08:56:35.109Z,15.73
2019-04-22T08:58:56.783Z,16.07
2019-04-22T09:03:58.437Z,14.97
2019-04-22T09:06:47.990Z,14.60
2019-04-22T09:09:04.714Z,15.03
2019-04-22T09:11:37.365Z,14.43
2019-04-22T09:14:08.903Z,16.63
2019-04-22T09:16:33.374Z,15.03
2019-04-22T09:18:59.774Z,14.17
2019-04-22T09:21:34.632Z,13.65
2019-04-22T09:24:06.933Z,15.55
2019-04-22T09:26:36.176Z,14.60
2019-04-22T09:29:08.133Z,15.35
2019-04-22T09:31:33.740Z,16.35
2019-04-22T09:34:01.086Z,17.15
2019-04-22T09:36:33.991Z,17.23
2019-04-22T09:39:01.438Z,15.98
2019-04-22T09:41:41.267Z,14.15
2019-04-22T09:44:05.540Z,15.38
2019-04-22T09:49:12.253Z,15.75
2019-04-22T09:51:37.370Z,14.45
2019-04-22T09:56:47.486Z,14.35
2019-04-22T09:59:07.553Z,14.73
2019-04-22T10:02:05.644Z,15.30
2019-04-22T10:04:08.306Z,13.70
2019-04-22T10:12:46.725Z,12.05
2019-04-22T10:15:13.870Z,13.62
2019-04-22T10:17:49.633Z,14.63
2019-04-22T10:20:26.926Z,16.93
2019-04-22T10:22:55.057Z,11.90
2019-04-22T10:25:25.245Z,15.78
2019-04-22T10:27:55.190Z,15.80
2019-04-22T10:30:33.254Z,16.30
2019-04-22T10:32:52.429Z,18.05
2019-04-22T10:35:14.422Z,18.02
2019-04-22T10:37:40.570Z,23.65
2019-04-22T10:40:15.704Z,33.00
2019-04-22T10:42:45.373Z,40.15
2019-04-22T10:45:14.664Z,27.05
2019-04-22T10:47:45.856Z,24.90
2019-04-22T10:50:16.541Z,35.73
2019-04-22T10:52:49.630Z,433.77
2019-04-22T10:55:23.393Z,262.77
2019-04-22T10:57:52.736Z,161.35
2019-04-22T11:00:21.867Z,436.50
2019-04-22T11:02:52.272Z,349.58
2019-04-22T11:05:21.985Z,215.55
2019-04-22T11:07:55.700Z,187.37
2019-04-22T11:10:36.964Z,186.03
2019-04-22T11:12:52.396Z,115.60
2019-04-22T11:15:22.419Z,76.85
2019-04-22T11:17:51.675Z,84.05
2019-04-22T11:20:21.773Z,111.25
2019-04-22T11:22:53.053Z,154.85
2019-04-22T11:25:21.737Z,220.17
2019-04-22T11:27:57.806Z,126.42
2019-04-22T11:30:30.228Z,155.45
2019-04-22T11:32:58.495Z,82.00
2019-04-22T11:35:27.993Z,59.95
2019-04-22T11:37:57.020Z,70.08
2019-04-22T11:40:34.598Z,93.65
2019-04-22T11:42:59.939Z,78.72
2019-04-22T11:45:29.111Z,74.47
2019-04-22T11:47:59.358Z,50.90
2019-04-22T11:50:30.077Z,64.65
2019-04-22T11:53:00.565Z,48.73
2019-04-22T11:55:30.942Z,41.10
2019-04-22T11:58:02.971Z,56.30
2019-04-22T12:00:36.825Z,126.90
2019-04-22T12:03:07.419Z,58.42
2019-04-22T12:05:37.597Z,37.08
2019-04-22T12:08:09.041Z,70.28
2019-04-22T12:10:46.859Z,47.62
2019-04-22T12:13:10.126Z,35.28
2019-04-22T12:15:40.639Z,32.55
2019-04-22T12:18:13.133Z,26.33
2019-04-22T12:20:43.368Z,26.23
2019-04-22T12:23:12.765Z,23.30
2019-04-22T12:25:48.708Z,23.98
2019-04-22T12:28:15.106Z,23.90
2019-04-22T12:30:51.255Z,23.73
2019-04-22T12:33:21.302Z,202.55
2019-04-22T12:35:56.748Z,45.58
2019-04-22T12:38:31.483Z,35.15
2019-04-22T12:41:05.867Z,29.82
2019-04-22T12:43:33.660Z,24.98
2019-04-22T12:46:02.657Z,23.80
2019-04-22T12:48:35.099Z,22.85
2019-04-22T12:51:05.028Z,24.20
2019-04-22T12:53:38.068Z,22.13
2019-04-22T12:56:09.263Z,22.73
2019-04-22T12:58:38.302Z,22.55
2019-04-22T13:01:08.663Z,23.60
2019-04-22T13:03:38.278Z,18.87
2019-04-22T13:06:11.888Z,21.80
2019-04-22T13:08:41.403Z,19.50
2019-04-22T13:11:15.646Z,20.27
2019-04-22T13:13:42.902Z,21.70
2019-04-22T13:16:13.263Z,20.82
2019-04-22T13:18:49.985Z,22.60
2019-04-22T13:21:14.877Z,21.52
2019-04-22T13:23:44.521Z,22.75
2019-04-22T13:26:15.239Z,22.98
2019-04-22T13:28:45.091Z,22.50
2019-04-22T13:31:16.047Z,21.23
2019-04-22T13:33:46.510Z,19.97
2019-04-22T13:36:18.484Z,20.35
2019-04-22T13:38:48.929Z,20.30
2019-04-22T13:41:28.923Z,20.10
2019-04-22T13:43:50.951Z,21.67
2019-04-22T13:46:20.105Z,22.67
2019-04-22T13:49:14.559Z,22.10
2019-04-22T13:56:43.828Z,17.60
2019-04-22T13:59:01.950Z,17.90
2019-04-22T14:01:34.710Z,18.40
2019-04-22T14:04:06.937Z,16.95
2019-04-22T14:06:36.582Z,18.12
2019-04-22T14:09:09.563Z,18.73
2019-04-22T14:12:01.931Z,21.42
2019-04-22T14:14:28.440Z,20.02
2019-04-22T14:16:58.957Z,17.57
2019-04-22T14:19:28.156Z,17.65
2019-04-22T14:21:57.804Z,17.70
2019-04-22T14:24:27.936Z,14.85
2019-04-22T14:27:13.780Z,15.98
2019-04-22T14:29:27.695Z,14.05
2019-04-22T14:32:07.573Z,14.10
2019-04-22T14:34:30.282Z,15.03
2019-04-22T14:36:59.483Z,12.28
2019-04-22T14:39:30.204Z,11.40
2019-04-22T14:42:18.698Z,9.48
2019-04-22T14:47:26.524Z,5.90
2019-04-22T14:49:58.934Z,5.22
2019-04-22T14:52:33.521Z,4.90
2019-04-22T14:54:52.063Z,5.37
2019-04-22T14:57:10.836Z,4.55
2019-04-22T14:59:39.969Z,3.83
2019-04-22T15:02:11.677Z,4.05
2019-04-22T15:04:43.002Z,3.40
2019-04-22T15:07:12.749Z,2.65
2019-04-22T15:09:42.004Z,2.17
2019-04-22T15:12:20.708Z,2.45
2019-04-22T15:14:41.819Z,1.90
2019-04-22T15:17:29.172Z,2.00
2019-04-22T15:19:59.746Z,2.02
2019-04-22T15:22:28.669Z,2.62
2019-04-22T15:24:58.575Z,2.42
2019-04-22T15:27:30.574Z,1.98
2019-04-22T15:29:59.166Z,2.25
2019-04-22T15:32:29.489Z,3.40
2019-04-22T15:34:59.584Z,3.10
2019-04-22T15:37:31.127Z,3.60
2019-04-22T15:40:00.573Z,3.35
2019-04-22T15:42:36.147Z,4.17
2019-04-22T15:45:05.288Z,3.50
2019-04-22T15:47:34.685Z,4.50
2019-04-22T15:50:08.036Z,4.65
2019-04-22T15:52:44.072Z,7.15
2019-04-22T15:55:09.040Z,7.55
2019-04-22T15:57:39.762Z,7.37
2019-04-22T16:00:21.155Z,7.47
2019-04-22T16:02:41.444Z,8.70
2019-04-22T16:05:10.720Z,10.15
2019-04-22T16:07:40.027Z,7.00
2019-04-22T16:10:12.540Z,11.15
2019-04-22T16:12:51.724Z,10.28
2019-04-22T16:15:13.276Z,11.35
2019-04-22T16:17:44.756Z,10.40
2019-04-22T16:20:17.221Z,10.53
2019-04-22T16:23:03.460Z,9.80
2019-04-22T16:25:45.032Z,10.70
2019-04-22T16:28:15.387Z,9.00
2019-04-22T16:30:45.508Z,9.77
2019-04-22T16:33:17.450Z,9.50
2019-04-22T16:35:48.853Z,11.93
2019-04-22T16:38:17.084Z,11.70
2019-04-22T16:40:46.180Z,9.47
2019-04-22T16:43:16.488Z,10.77
2019-04-22T16:45:45.694Z,9.57
2019-04-22T16:48:15.795Z,12.53
2019-04-22T16:50:48.671Z,11.27
2019-04-22T16:53:16.990Z,13.27
2019-04-22T16:55:48.933Z,12.17
2019-04-22T16:58:18.933Z,13.13
2019-04-22T17:00:49.665Z,11.67
2019-04-22T17:03:28.935Z,12.13
2019-04-22T17:06:11.825Z,10.30
2019-04-22T17:08:42.414Z,11.40
2019-04-22T17:11:11.754Z,11.17
2019-04-22T17:13:44.077Z,12.93
2019-04-22T17:16:13.861Z,13.13
2019-04-22T17:18:46.776Z,10.97
2019-04-22T17:21:14.878Z,10.43
2019-04-22T17:23:45.561Z,12.97
2019-04-22T17:26:16.747Z,13.50
2019-04-22T17:28:46.593Z,14.43
2019-04-22T17:31:16.445Z,12.23
2019-04-22T17:33:46.717Z,12.40
2019-04-22T17:36:16.357Z,11.73
2019-04-22T17:38:56.329Z,14.30
2019-04-22T17:41:28.270Z,11.80
2019-04-22T17:44:12.259Z,11.30
2019-04-22T17:46:44.630Z,13.70
2019-04-22T17:49:37.200Z,13.07
2019-04-22T17:52:21.603Z,11.63
2019-04-22T17:57:27.861Z,15.73
2019-04-22T18:00:07.013Z,12.80
2019-04-22T18:02:24.162Z,11.93
2019-04-22T18:04:45.702Z,13.47
2019-04-22T18:07:35.510Z,15.10
2019-04-22T18:10:23.320Z,10.23
2019-04-22T18:15:19.388Z,12.27
2019-04-22T18:17:41.248Z,14.57
2019-04-22T18:20:05.796Z,11.10
2019-04-22T18:22:29.414Z,10.33
2019-04-22T18:25:03.864Z,12.03
2019-04-22T18:27:52.343Z,11.17
2019-04-22T18:30:09.214Z,10.63
2019-04-22T18:32:47.154Z,10.50
2019-04-22T18:35:18.560Z,10.97
2019-04-22T18:37:50.634Z,11.37
2019-04-22T18:40:29.305Z,11.60
2019-04-22T18:42:58.448Z,11.93
2019-04-22T18:45:39.763Z,11.27
2019-04-22T18:47:52.801Z,11.17
2019-04-22T18:50:37.130Z,10.93
2019-04-22T18:53:23.436Z,23.10
2019-04-22T18:56:03.766Z,11.37
2019-04-22T18:58:32.229Z,9.93
2019-04-22T19:00:50.821Z,8.13
2019-04-22T19:03:25.804Z,9.47
2019-04-22T19:06:25.994Z,7.50
2019-04-22T19:08:43.086Z,10.03
2019-04-22T19:11:32.097Z,7.67
2019-04-22T19:19:24.564Z,7.77
2019-04-22T19:21:37.997Z,6.07
2019-04-22T19:24:06.023Z,6.63
2019-04-22T19:29:05.624Z,7.70
2019-04-22T19:31:41.022Z,8.63
2019-04-22T19:34:09.341Z,8.07
2019-04-22T19:36:45.119Z,6.50
2019-04-22T19:39:12.137Z,8.47
2019-04-22T19:41:48.875Z,10.37
2019-04-22T19:44:20.175Z,9.57
2019-04-22T19:46:56.731Z,7.90
2019-04-22T19:49:24.443Z,8.17
2019-04-22T19:51:57.311Z,9.50
2019-04-22T19:54:18.995Z,8.97
2019-04-22T19:56:41.448Z,7.20
2019-04-22T19:59:11.753Z,9.37
2019-04-22T20:01:54.112Z,6.77
2019-04-22T20:04:41.344Z,7.70
2019-04-22T20:07:08.511Z,6.87
2019-04-22T20:09:46.690Z,8.37
2019-04-22T20:12:15.382Z,8.47
2019-04-22T20:14:44.996Z,8.57
2019-04-22T20:17:25.998Z,8.47
2019-04-22T20:19:55.312Z,5.87
2019-04-22T20:22:17.608Z,6.03
2019-04-22T20:24:43.550Z,8.17
2019-04-22T20:27:23.776Z,6.87
2019-04-22T20:29:58.236Z,11.30
2019-04-22T20:32:26.243Z,6.73
2019-04-22T20:35:02.566Z,6.87
2019-04-22T20:37:35.530Z,12.77
2019-04-22T20:40:02.580Z,8.83
2019-04-22T20:42:45.179Z,6.27
2019-04-22T20:45:11.787Z,8.73
2019-04-22T20:47:31.957Z,8.00
2019-04-22T20:50:19.539Z,10.20
2019-04-22T20:52:53.976Z,8.70
2019-04-22T20:55:16.333Z,9.77
2019-04-22T20:57:59.108Z,9.70
2019-04-22T21:00:23.360Z,8.27
2019-04-22T21:02:48.749Z,9.37
2019-04-22T21:05:25.087Z,11.80
2019-04-22T21:08:12.566Z,9.67
2019-04-22T21:10:34.464Z,12.37
2019-04-22T21:16:04.137Z,13.47
2019-04-22T21:18:30.476Z,10.73
2019-04-22T21:21:07.312Z,10.53
2019-04-22T21:23:36.603Z,10.60
2019-04-22T21:26:08.046Z,9.23
2019-04-22T21:28:38.347Z,10.70
2019-04-22T21:31:19.155Z,9.43
2019-04-22T21:33:48.980Z,8.17
2019-04-22T21:36:24.928Z,8.97
2019-04-22T21:38:48.288Z,10.97
2019-04-22T21:41:39.207Z,8.33
2019-04-22T21:44:12.808Z,8.90
2019-04-22T21:46:53.619Z,9.93
2019-04-22T21:49:21.696Z,5.77
2019-04-22T21:51:49.701Z,7.07
2019-04-22T21:54:22.171Z,6.97
2019-04-22T21:57:09.052Z,6.17
2019-04-22T21:59:31.004Z,6.27
2019-04-22T22:02:04.437Z,7.07
2019-04-22T22:04:30.350Z,8.60
2019-04-22T22:06:55.375Z,10.97
2019-04-22T22:09:39.082Z,11.33
2019-04-22T22:12:05.259Z,8.57
2019-04-22T22:14:47.821Z,5.97
2019-04-22T22:17:20.587Z,6.53
2019-04-22T22:19:45.483Z,7.23
2019-04-22T22:22:42.375Z,6.33
2019-04-22T22:24:57.262Z,4.93
2019-04-22T22:27:32.628Z,6.00
2019-04-22T22:30:19.146Z,6.47
2019-04-22T22:32:37.097Z,6.77
2019-04-22T22:35:10.098Z,6.37
2019-04-22T22:37:45.025Z,5.70
2019-04-22T22:40:06.570Z,3.70
2019-04-22T22:42:38.165Z,6.23
2019-04-22T22:45:14.169Z,5.70
2019-04-22T22:47:44.291Z,6.23
2019-04-22T22:50:27.463Z,6.67
2019-04-22T22:53:10.861Z,4.50
2019-04-22T22:55:29.553Z,9.00
2019-04-22T22:58:06.218Z,9.90
2019-04-22T23:00:27.091Z,10.00
2019-04-22T23:03:27.566Z,9.57
2019-04-22T23:05:37.734Z,6.00
2019-04-22T23:08:09.595Z,5.57
2019-04-22T23:10:52.823Z,10.67
2019-04-22T23:13:16.806Z,7.97
2019-04-22T23:15:39.007Z,6.67
2019-04-22T23:17:58.049Z,5.93
2019-04-22T23:20:33.750Z,5.30
2019-04-22T23:23:36.455Z,5.30
2019-04-22T23:25:56.780Z,6.37
2019-04-22T23:28:16.114Z,6.27
2019-04-22T23:30:53.336Z,8.73
2019-04-22T23:33:42.340Z,6.03
2019-04-22T23:36:12.804Z,6.73
2019-04-22T23:38:50.555Z,5.90
2019-04-22T23:44:10.340Z,6.87
2019-04-22T23:46:39.575Z,7.97
2019-04-22T23:49:11.703Z,7.10
2019-04-22T23:51:55.368Z,7.63
2019-04-22T23:54:22.200Z,9.27
2019-04-22T23:56:43.502Z,6.60
2019-04-22T23:59:43.059Z,5.63
